Time;durP1;ratioP1;P1;durP2;ratioP2;P2;SDS_P1;SDS_P2;PMS_P1;PMS_P2;Temp;Humidity;BMP_temperature;BMP_pressure;BME280_temperature;BME280_humidity;BME280_pressure;Samples;Min_cycle;Max_cycle;Signal;HPM_P1;HPM_P2
2022/06/13 00:00:43;;;;;;;5.67;5.17;;;;;;;;;;5095488;28;20182;-76
2022/06/13 00:03:48;;;;;;;6.20;4.43;;;;;;;;;;5085744;28;20222;-76
2022/06/13 00:06:52;;;;;;;6.13;5.40;;;;;;;;;;5085447;28;20203;-76
2022/06/13 00:09:57;;;;;;;7.50;5.03;;;;;;;;;;5075403;28;20175;-75
2022/06/13 00:13:01;;;;;;;5.83;5.00;;;;;;;;;;5075110;28;20191;-75
2022/06/13 00:16:05;;;;;;;7.20;5.50;;;;;;;;;;5076483;28;20180;-75
2022/06/13 00:19:09;;;;;;;5.80;5.20;;;;;;;;;;5074501;28;20623;-74
2022/06/13 00:22:13;;;;;;;6.87;5.23;;;;;;;;;;5063668;28;20227;-74
2022/06/13 00:25:17;;;;;;;10.37;5.17;;;;;;;;;;5075381;28;20215;-74
2022/06/13 00:28:21;;;;;;;7.50;5.50;;;;;;;;;;5094524;28;20183;-73
2022/06/13 00:31:26;;;;;;;7.70;5.13;;;;;;;;;;5094615;28;20562;-73
2022/06/13 00:34:30;;;;;;;9.10;5.47;;;;;;;;;;5095178;28;20179;-73
2022/06/13 00:37:34;;;;;;;8.07;4.90;;;;;;;;;;5073768;28;20203;-73
2022/06/13 00:40:38;;;;;;;8.13;5.33;;;;;;;;;;5082290;28;20190;-74
2022/06/13 00:43:45;;;;;;;5.67;4.93;;;;;;;;;;5093611;28;20206;-73
2022/06/13 00:46:50;;;;;;;9.83;5.00;;;;;;;;;;5076759;28;20531;-73
2022/06/13 00:49:54;;;;;;;5.93;4.87;;;;;;;;;;5085303;28;20187;-73
2022/06/13 00:53:09;;;;;;;8.73;5.80;;;;;;;;;;5094825;28;20178;-73
2022/06/13 00:56:17;;;;;;;7.60;5.03;;;;;;;;;;5081338;28;20377;-74
2022/06/13 00:59:25;;;;;;;7.07;5.73;;;;;;;;;;5073326;28;20183;-74
2022/06/13 01:02:30;;;;;;;7.93;6.17;;;;;;;;;;5073908;28;20585;-75
2022/06/13 01:05:37;;;;;;;7.80;5.80;;;;;;;;;;5080629;28;20203;-74
2022/06/13 01:08:42;;;;;;;11.50;5.63;;;;;;;;;;5082110;28;20527;-74
2022/06/13 01:11:50;;;;;;;7.30;5.97;;;;;;;;;;5093566;28;20214;-74
2022/06/13 01:15:05;;;;;;;10.20;6.33;;;;;;;;;;5092815;28;20171;-74
2022/06/13 01:18:18;;;;;;;8.77;6.17;;;;;;;;;;5087037;28;20190;-74
2022/06/13 01:21:31;;;;;;;7.23;5.73;;;;;;;;;;5092359;28;20222;-74
2022/06/13 01:25:22;;;;;;;10.47;6.07;;;;;;;;;;5093028;28;20214;-74
2022/06/13 01:28:41;;;;;;;9.80;6.00;;;;;;;;;;5072815;28;20183;-73
2022/06/13 01:32:00;;;;;;;15.57;6.37;;;;;;;;;;5084827;28;20218;-72
2022/06/13 01:35:28;;;;;;;5.73;2.57;;;;;;;;;;5091708;28;20171;-74
2022/06/13 01:38:48;;;;;;;16.97;2.43;;;;;;;;;;5077769;28;20179;-73
2022/06/13 01:42:41;;;;;;;9.33;2.50;;;;;;;;;;5082478;28;20223;-74
2022/06/13 01:45:55;;;;;;;9.30;3.43;;;;;;;;;;5085649;28;20709;-74
2022/06/13 01:49:34;;;;;;;5.33;3.37;;;;;;;;;;5093829;28;20183;-74
2022/06/13 01:52:41;;;;;;;7.60;4.47;;;;;;;;;;5005785;28;20229;-74
2022/06/13 01:55:59;;;;;;;8.30;4.70;;;;;;;;;;5084301;28;20182;-74
2022/06/13 01:59:32;;;;;;;7.70;5.07;;;;;;;;;;5082074;28;20191;-74
2022/06/13 02:02:50;;;;;;;8.13;6.03;;;;;;;;;;5072175;28;20215;-75
2022/06/13 02:06:29;;;;;;;9.53;6.07;;;;;;;;;;5073028;28;20211;-75
2022/06/13 02:09:41;;;;;;;9.07;5.53;;;;;;;;;;5091819;28;20186;-76
2022/06/13 02:12:48;;;;;;;6.33;5.43;;;;;;;;;;5092315;28;20686;-76
2022/06/13 02:15:56;;;;;;;12.43;5.30;;;;;;;;;;5080819;28;20194;-76
2022/06/13 02:19:11;;;;;;;6.07;4.83;;;;;;;;;;5091482;28;20194;-76
2022/06/13 02:22:38;;;;;;;6.00;5.03;;;;;;;;;;5092895;28;20681;-76
2022/06/13 02:25:54;;;;;;;5.63;4.97;;;;;;;;;;5072351;28;20212;-76
2022/06/13 02:29:07;;;;;;;6.33;4.43;;;;;;;;;;5081816;28;20191;-75
2022/06/13 02:32:14;;;;;;;5.17;4.00;;;;;;;;;;5092260;28;20218;-75
2022/06/13 02:35:30;;;;;;;6.20;4.10;;;;;;;;;;5089259;28;20187;-75
2022/06/13 02:38:45;;;;;;;5.37;4.50;;;;;;;;;;5072823;28;20516;-75
2022/06/13 02:41:56;;;;;;;7.87;4.17;;;;;;;;;;5088623;28;20227;-75
2022/06/13 02:45:06;;;;;;;5.80;4.33;;;;;;;;;;5080595;28;20207;-76
2022/06/13 02:48:35;;;;;;;8.10;4.07;;;;;;;;;;5072230;28;20187;-75
2022/06/13 02:51:53;;;;;;;7.83;4.47;;;;;;;;;;5079166;28;20222;-76
2022/06/13 02:55:01;;;;;;;10.93;4.13;;;;;;;;;;5085261;28;20180;-76
2022/06/13 02:58:31;;;;;;;9.17;4.27;;;;;;;;;;5071766;28;20650;-76
2022/06/13 03:01:43;;;;;;;6.20;4.20;;;;;;;;;;5053590;28;20218;-76
2022/06/13 03:04:57;;;;;;;4.57;4.03;;;;;;;;;;5075437;28;20223;-76
2022/06/13 03:08:20;;;;;;;5.53;4.10;;;;;;;;;;5075438;28;20531;-76
2022/06/13 03:11:50;;;;;;;7.60;4.33;;;;;;;;;;5078838;28;20570;-76
2022/06/13 03:15:05;;;;;;;4.87;3.83;;;;;;;;;;5084029;28;20175;-76
2022/06/13 03:18:25;;;;;;;5.43;4.57;;;;;;;;;;5087587;28;20527;-76
2022/06/13 03:21:40;;;;;;;7.37;3.90;;;;;;;;;;5080129;28;20219;-76
2022/06/13 03:25:00;;;;;;;4.60;4.20;;;;;;;;;;5076080;28;20670;-76
2022/06/13 03:28:23;;;;;;;5.73;4.33;;;;;;;;;;5085515;28;20198;-76
2022/06/13 03:31:59;;;;;;;6.37;4.40;;;;;;;;;;5078939;28;20555;-77
2022/06/13 03:35:08;;;;;;;5.43;3.90;;;;;;;;;;5095545;28;20630;-76
2022/06/13 03:38:18;;;;;;;5.77;4.83;;;;;;;;;;5093397;28;20646;-76
2022/06/13 03:41:27;;;;;;;7.57;4.50;;;;;;;;;;5084388;28;20218;-76
2022/06/13 03:45:04;;;;;;;5.13;4.63;;;;;;;;;;5096121;28;20211;-76
2022/06/13 03:48:11;;;;;;;6.40;4.47;;;;;;;;;;5072302;28;20198;-76
2022/06/13 03:51:20;;;;;;;6.90;5.17;;;;;;;;;;5094154;28;20214;-76
2022/06/13 03:54:54;;;;;;;5.53;5.00;;;;;;;;;;5095477;28;20183;-76
2022/06/13 03:58:06;;;;;;;7.23;4.67;;;;;;;;;;5091383;28;20175;-76
2022/06/13 04:01:19;;;;;;;8.03;4.73;;;;;;;;;;5079169;28;20214;-76
2022/06/13 04:04:30;;;;;;;4.90;4.20;;;;;;;;;;5095321;28;20203;-76
2022/06/13 04:07:37;;;;;;;5.00;4.53;;;;;;;;;;5094617;28;20198;-76
2022/06/13 04:11:18;;;;;;;5.20;4.60;;;;;;;;;;5095320;28;20175;-76
2022/06/13 04:14:37;;;;;;;7.43;4.27;;;;;;;;;;5075205;28;20176;-77
2022/06/13 04:18:00;;;;;;;5.50;4.70;;;;;;;;;;5074527;28;20176;-76
2022/06/13 04:21:32;;;;;;;5.03;4.47;;;;;;;;;;5078296;28;20210;-76
2022/06/13 04:25:07;;;;;;;6.17;4.73;;;;;;;;;;5079011;28;20563;-76
2022/06/13 04:28:20;;;;;;;5.60;4.57;;;;;;;;;;5075231;28;20627;-76
2022/06/13 04:31:27;;;;;;;6.97;5.00;;;;;;;;;;5081405;28;20230;-78
2022/06/13 04:34:36;;;;;;;4.93;4.43;;;;;;;;;;5077594;28;20203;-78
2022/06/13 04:37:42;;;;;;;5.50;4.90;;;;;;;;;;5078174;28;20532;-77
2022/06/13 04:40:54;;;;;;;7.90;4.50;;;;;;;;;;5086696;28;20214;-77
2022/06/13 04:44:03;;;;;;;6.43;4.67;;;;;;;;;;5098443;28;20183;-78
2022/06/13 04:47:11;;;;;;;7.30;4.47;;;;;;;;;;5087737;28;20171;-78
2022/06/13 04:50:21;;;;;;;6.23;4.47;;;;;;;;;;5100019;28;20187;-78
2022/06/13 04:53:42;;;;;;;4.97;4.37;;;;;;;;;;5078870;28;20184;-78
2022/06/13 04:56:46;;;;;;;4.80;4.40;;;;;;;;;;5057441;28;20171;-78
2022/06/13 04:59:50;;;;;;;5.03;4.47;;;;;;;;;;5100312;28;20187;-78
2022/06/13 05:02:55;;;;;;;6.63;4.37;;;;;;;;;;5080442;28;20195;-79
2022/06/13 05:06:05;;;;;;;6.40;4.23;;;;;;;;;;5066315;28;20211;-78
2022/06/13 05:09:26;;;;;;;6.17;4.00;;;;;;;;;;5063613;28;20191;-80
2022/06/13 05:12:32;;;;;;;4.60;3.33;;;;;;;;;;5089722;28;20219;-79
2022/06/13 05:15:36;;;;;;;5.43;3.97;;;;;;;;;;5090420;28;20187;-78
2022/06/13 05:18:40;;;;;;;3.70;3.40;;;;;;;;;;5088464;28;20179;-79
2022/06/13 05:21:59;;;;;;;4.73;3.93;;;;;;;;;;5092729;28;20564;-79
2022/06/13 05:25:46;;;;;;;4.30;3.20;;;;;;;;;;5083832;28;20207;-78
2022/06/13 05:28:50;;;;;;;5.90;3.40;;;;;;;;;;5083130;28;20188;-79
2022/06/13 05:31:55;;;;;;;3.77;3.30;;;;;;;;;;5076818;28;20222;-78
2022/06/13 05:35:01;;;;;;;4.57;3.43;;;;;;;;;;5087244;28;20535;-78
2022/06/13 05:38:05;;;;;;;7.43;3.93;;;;;;;;;;5066878;28;20195;-78
2022/06/13 05:41:10;;;;;;;5.20;3.40;;;;;;;;;;5071146;28;20219;-79
2022/06/13 05:44:14;;;;;;;4.00;3.60;;;;;;;;;;5084165;28;20206;-78
2022/06/13 05:47:19;;;;;;;4.60;4.20;;;;;;;;;;5100209;28;20508;-79
2022/06/13 05:50:29;;;;;;;6.13;3.60;;;;;;;;;;5086308;28;20191;-79
2022/06/13 05:53:33;;;;;;;5.80;3.80;;;;;;;;;;5098156;28;20175;-79
2022/06/13 05:56:38;;;;;;;6.00;4.67;;;;;;;;;;5085152;28;20625;-79
2022/06/13 05:59:42;;;;;;;6.87;4.90;;;;;;;;;;5077388;28;20192;-78
2022/06/13 06:02:46;;;;;;;5.70;4.10;;;;;;;;;;5092049;28;20214;-78
2022/06/13 06:05:51;;;;;;;4.23;3.50;;;;;;;;;;5075335;28;20219;-78
2022/06/13 06:08:55;;;;;;;6.80;4.07;;;;;;;;;;5063359;28;20187;-78
2022/06/13 06:11:59;;;;;;;7.40;4.90;;;;;;;;;;5091141;28;20222;-78
2022/06/13 06:15:04;;;;;;;6.00;3.47;;;;;;;;;;5074151;28;20661;-79
2022/06/13 06:18:09;;;;;;;4.10;3.70;;;;;;;;;;5076397;28;20172;-79
2022/06/13 06:21:14;;;;;;;5.40;3.90;;;;;;;;;;5073768;28;20215;-79
2022/06/13 06:24:18;;;;;;;5.17;3.70;;;;;;;;;;5068253;28;20188;-80
2022/06/13 06:27:22;;;;;;;3.80;3.50;;;;;;;;;;5074848;28;20187;-80
2022/06/13 06:30:27;;;;;;;9.53;3.10;;;;;;;;;;5082734;28;20195;-79
2022/06/13 06:33:32;;;;;;;5.17;3.00;;;;;;;;;;5095443;28;20194;-78
2022/06/13 06:36:36;;;;;;;3.67;3.10;;;;;;;;;;5080582;28;20187;-79
2022/06/13 06:39:40;;;;;;;4.50;2.77;;;;;;;;;;5073509;28;20195;-80
2022/06/13 06:42:44;;;;;;;4.90;2.43;;;;;;;;;;5104131;28;20214;-79
2022/06/13 06:45:49;;;;;;;7.87;3.10;;;;;;;;;;5103864;28;20210;-80
2022/06/13 06:48:53;;;;;;;5.90;2.77;;;;;;;;;;5092767;28;20174;-79
2022/06/13 06:51:59;;;;;;;5.27;2.60;;;;;;;;;;5080196;28;20219;-79
2022/06/13 06:59:53;;;;;;;3.13;2.43;;;;;;;;;;5077908;28;20536;-81
2022/06/13 07:01:52;;;;;;;4.27;2.70;;;;;;;;;;5082772;28;20219;-81
2022/06/13 07:05:00;;;;;;;3.60;2.20;;;;;;;;;;5068604;28;20199;-81
2022/06/13 07:08:05;;;;;;;6.87;2.50;;;;;;;;;;5071962;28;20187;-80
2022/06/13 07:14:42;;;;;;;3.40;2.00;;;;;;;;;;5082508;28;20180;-80
2022/06/13 07:17:46;;;;;;;2.73;1.83;;;;;;;;;;5068417;28;20183;-80
2022/06/13 07:20:50;;;;;;;4.03;2.20;;;;;;;;;;5068395;28;20219;-80
2022/06/13 07:23:54;;;;;;;5.40;2.10;;;;;;;;;;5080239;28;20191;-80
2022/06/13 07:26:59;;;;;;;3.23;2.00;;;;;;;;;;5068409;28;20207;-79
2022/06/13 07:30:04;;;;;;;5.57;2.10;;;;;;;;;;5068266;28;20187;-80
2022/06/13 07:33:08;;;;;;;6.50;2.10;;;;;;;;;;5075998;28;20186;-81
2022/06/13 07:36:13;;;;;;;4.63;2.37;;;;;;;;;;5077692;28;20650;-81
2022/06/13 07:39:17;;;;;;;5.07;2.20;;;;;;;;;;5055176;28;20172;-80
2022/06/13 07:42:22;;;;;;;3.33;1.90;;;;;;;;;;5054978;28;20215;-80
2022/06/13 07:45:29;;;;;;;4.77;2.13;;;;;;;;;;5066277;28;20191;-81
2022/06/13 07:48:34;;;;;;;4.03;1.90;;;;;;;;;;5056394;28;20192;-80
2022/06/13 07:51:38;;;;;;;5.57;2.07;;;;;;;;;;5077118;28;20219;-81
2022/06/13 07:54:43;;;;;;;3.47;2.10;;;;;;;;;;5078115;28;20180;-80
2022/06/13 07:57:47;;;;;;;4.17;1.90;;;;;;;;;;5067089;28;20649;-81
2022/06/13 08:00:51;;;;;;;4.97;1.90;;;;;;;;;;5065841;28;20223;-81
2022/06/13 08:03:56;;;;;;;6.60;2.13;;;;;;;;;;5077102;28;20207;-81
2022/06/13 08:07:00;;;;;;;4.67;1.97;;;;;;;;;;5059638;28;20216;-81
2022/06/13 08:10:04;;;;;;;4.93;2.10;;;;;;;;;;5064347;28;20185;-80
2022/06/13 08:13:12;;;;;;;5.00;1.90;;;;;;;;;;5083107;28;20655;-81
2022/06/13 08:16:16;;;;;;;4.30;2.07;;;;;;;;;;5096845;28;20204;-81
2022/06/13 08:19:21;;;;;;;4.67;1.90;;;;;;;;;;5081916;28;20650;-79
2022/06/13 08:22:25;;;;;;;3.10;1.77;;;;;;;;;;5102212;28;20210;-79
2022/06/13 08:25:31;;;;;;;7.63;1.70;;;;;;;;;;5072344;28;20189;-79
2022/06/13 08:28:36;;;;;;;4.97;1.75;;;;;;;;;;5068732;28;20176;-79
2022/06/13 08:31:40;;;;;;;2.80;1.67;;;;;;;;;;5087532;28;20215;-79
2022/06/13 08:34:44;;;;;;;2.85;1.60;;;;;;;;;;5099009;28;20189;-79
2022/06/13 08:37:49;;;;;;;3.55;1.58;;;;;;;;;;5096668;28;20179;-79
2022/06/13 08:41:12;;;;;;;5.97;1.73;;;;;;;;;;5057346;28;20222;-79
2022/06/13 08:44:34;;;;;;;3.47;1.60;;;;;;;;;;5056710;28;20184;-79
2022/06/13 08:47:49;;;;;;;2.78;1.60;;;;;;;;;;5081612;28;20206;-80
2022/06/13 08:51:03;;;;;;;5.28;1.58;;;;;;;;;;5067140;28;20214;-80
2022/06/13 08:54:11;;;;;;;3.55;1.52;;;;;;;;;;5068998;28;20182;-79
2022/06/13 08:57:15;;;;;;;3.67;1.83;;;;;;;;;;5087987;28;20537;-80
2022/06/13 09:00:23;;;;;;;3.40;1.50;;;;;;;;;;5080754;28;20188;-79
2022/06/13 09:03:34;;;;;;;5.47;1.67;;;;;;;;;;5069772;28;20197;-79
2022/06/13 09:06:45;;;;;;;4.72;1.85;;;;;;;;;;5089599;28;20214;-80
2022/06/13 09:10:19;;;;;;;4.65;1.90;;;;;;;;;;5078477;28;20177;-79
2022/06/13 09:13:55;;;;;;;4.75;1.92;;;;;;;;;;5101630;28;20197;-79
2022/06/13 09:17:05;;;;;;;3.55;1.88;;;;;;;;;;5086807;28;20189;-79
2022/06/13 09:20:18;;;;;;;5.15;2.03;;;;;;;;;;5068641;28;20181;-79
2022/06/13 09:24:00;;;;;;;3.67;1.77;;;;;;;;;;5092549;28;20191;-79
2022/06/13 09:27:10;;;;;;;5.80;1.65;;;;;;;;;;5082257;28;20227;-79
2022/06/13 09:30:19;;;;;;;6.68;1.92;;;;;;;;;;5059846;28;20203;-79
2022/06/13 09:33:33;;;;;;;4.78;1.85;;;;;;;;;;5081338;28;20191;-80
2022/06/13 09:36:45;;;;;;;5.60;1.83;;;;;;;;;;5089366;28;20181;-79
2022/06/13 09:39:49;;;;;;;4.45;1.70;;;;;;;;;;5093666;28;20186;-79
2022/06/13 09:43:15;;;;;;;6.65;2.00;;;;;;;;;;5069518;28;20183;-79
2022/06/13 09:46:32;;;;;;;6.05;1.90;;;;;;;;;;5069992;28;20216;-79
2022/06/13 09:49:45;;;;;;;3.35;1.48;;;;;;;;;;5072046;28;20647;-79
2022/06/13 09:52:56;;;;;;;3.47;1.85;;;;;;;;;;5076209;28;20830;-79
2022/06/13 09:56:11;;;;;;;4.13;1.95;;;;;;;;;;5083002;28;20188;-79
2022/06/13 09:59:41;;;;;;;6.95;2.53;;;;;;;;;;5056077;28;20191;-79
2022/06/13 10:02:54;;;;;;;12.82;4.07;;;;;;;;;;5067286;28;20227;-79
2022/06/13 10:06:06;;;;;;;3.97;1.80;;;;;;;;;;5060790;28;20178;-78
2022/06/13 10:09:31;;;;;;;5.97;2.20;;;;;;;;;;5083256;28;20190;-79
2022/06/13 10:12:58;;;;;;;2.78;1.80;;;;;;;;;;5076348;28;20218;-79
2022/06/13 10:16:09;;;;;;;9.15;1.88;;;;;;;;;;5077311;28;20197;-79
2022/06/13 10:19:53;;;;;;;7.18;2.30;;;;;;;;;;5077290;28;20654;-78
2022/06/13 10:23:13;;;;;;;7.00;2.30;;;;;;;;;;5053118;28;20204;-78
2022/06/13 10:26:39;;;;;;;5.82;1.60;;;;;;;;;;5064091;28;20194;-79
2022/06/13 10:30:11;;;;;;;5.07;1.90;;;;;;;;;;5077210;28;20194;-79
2022/06/13 10:33:45;;;;;;;4.50;1.88;;;;;;;;;;5079963;28;20192;-78
2022/06/13 10:37:03;;;;;;;4.88;1.88;;;;;;;;;;5087940;28;20186;-79
2022/06/13 10:40:08;;;;;;;5.53;1.95;;;;;;;;;;5066530;28;20183;-79
2022/06/13 10:43:12;;;;;;;6.97;2.00;;;;;;;;;;5089877;28;20190;-78
2022/06/13 10:46:17;;;;;;;5.28;1.50;;;;;;;;;;5100343;28;20201;-78
2022/06/13 10:49:28;;;;;;;4.82;1.65;;;;;;;;;;5095509;28;20633;-79
2022/06/13 10:52:39;;;;;;;7.07;1.80;;;;;;;;;;5052771;28;20217;-80
2022/06/13 10:55:46;;;;;;;5.82;1.63;;;;;;;;;;5069827;28;20177;-80
2022/06/13 10:58:55;;;;;;;5.00;1.60;;;;;;;;;;5079491;28;20182;-79
2022/06/13 11:02:03;;;;;;;4.82;1.60;;;;;;;;;;5078215;28;20221;-80
2022/06/13 11:05:11;;;;;;;4.63;1.58;;;;;;;;;;5063367;28;20211;-80
2022/06/13 11:08:15;;;;;;;3.28;1.40;;;;;;;;;;5069135;28;20222;-79
2022/06/13 11:11:29;;;;;;;7.20;1.85;;;;;;;;;;5102931;28;20213;-79
2022/06/13 11:22:37;;;;;;;3.30;1.40;;;;;;;;;;5068580;28;20190;-79
2022/06/13 11:25:29;;;;;;;4.15;1.55;;;;;;;;;;5093450;28;20187;-79
2022/06/13 11:28:39;;;;;;;4.43;1.60;;;;;;;;;;5067527;28;20212;-79
2022/06/13 11:31:56;;;;;;;4.28;1.48;;;;;;;;;;5079725;28;20225;-79
2022/06/13 11:35:01;;;;;;;4.25;1.60;;;;;;;;;;5085635;28;20538;-79
2022/06/13 11:38:28;;;;;;;4.93;1.42;;;;;;;;;;5088248;28;20526;-79
2022/06/13 11:41:44;;;;;;;5.82;1.73;;;;;;;;;;5079469;28;20220;-79
2022/06/13 11:44:56;;;;;;;5.15;1.60;;;;;;;;;;5061083;28;20533;-79
2022/06/13 11:48:00;;;;;;;4.68;1.60;;;;;;;;;;5070562;28;20213;-79
2022/06/13 11:51:16;;;;;;;2.90;1.30;;;;;;;;;;5097566;28;20696;-78
2022/06/13 11:54:28;;;;;;;6.25;1.83;;;;;;;;;;5080445;28;20196;-79
2022/06/13 11:57:35;;;;;;;3.47;1.50;;;;;;;;;;5079301;28;20191;-79
2022/06/13 12:01:00;;;;;;;3.53;1.42;;;;;;;;;;5066614;28;20554;-78
2022/06/13 12:04:13;;;;;;;6.38;1.42;;;;;;;;;;5077226;28;20208;-79
2022/06/13 12:07:25;;;;;;;2.65;1.30;;;;;;;;;;5068610;28;20212;-79
2022/06/13 12:10:33;;;;;;;5.10;1.40;;;;;;;;;;5071948;28;20187;-79
2022/06/13 12:13:40;;;;;;;9.88;1.50;;;;;;;;;;5066194;28;20198;-78
2022/06/13 12:17:01;;;;;;;3.28;1.45;;;;;;;;;;5092684;28;20192;-79
2022/06/13 12:20:17;;;;;;;5.28;1.63;;;;;;;;;;5085331;28;20174;-78
2022/06/13 12:23:32;;;;;;;3.45;1.23;;;;;;;;;;5088242;28;20184;-78
2022/06/13 12:26:47;;;;;;;5.63;1.50;;;;;;;;;;5089598;28;20179;-78
2022/06/13 12:30:04;;;;;;;3.90;1.15;;;;;;;;;;5075238;28;20198;-78
2022/06/13 12:33:30;;;;;;;5.82;1.50;;;;;;;;;;5096333;28;20187;-78
2022/06/13 12:36:43;;;;;;;4.35;1.65;;;;;;;;;;5103235;28;20189;-78
2022/06/13 12:39:54;;;;;;;3.83;1.33;;;;;;;;;;5094089;28;20195;-79
2022/06/13 12:43:37;;;;;;;5.00;1.63;;;;;;;;;;5092509;28;20195;-78
2022/06/13 12:46:55;;;;;;;6.43;1.20;;;;;;;;;;5067711;28;20188;-79
2022/06/13 12:50:16;;;;;;;5.55;1.50;;;;;;;;;;5093931;28;20193;-79
2022/06/13 12:54:03;;;;;;;5.20;1.48;;;;;;;;;;5064393;28;20172;-78
2022/06/13 12:57:12;;;;;;;2.03;1.17;;;;;;;;;;5084370;28;20200;-78
2022/06/13 13:00:30;;;;;;;4.57;1.30;;;;;;;;;;5090007;28;20189;-78
2022/06/13 13:03:59;;;;;;;4.88;1.30;;;;;;;;;;5063191;28;20204;-78
2022/06/13 13:07:24;;;;;;;4.68;1.27;;;;;;;;;;5093671;28;20194;-78
2022/06/13 13:10:39;;;;;;;4.10;1.30;;;;;;;;;;5081897;28;20201;-79
2022/06/13 13:14:20;;;;;;;3.92;1.17;;;;;;;;;;5097939;28;20191;-79
2022/06/13 13:17:41;;;;;;;6.60;1.40;;;;;;;;;;5063922;28;20180;-79
2022/06/13 13:21:12;;;;;;;3.58;1.23;;;;;;;;;;5083613;28;20192;-79
2022/06/13 13:24:36;;;;;;;3.85;1.27;;;;;;;;;;5108969;28;20184;-79
2022/06/13 13:27:57;;;;;;;3.63;1.25;;;;;;;;;;5086730;28;20212;-79
2022/06/13 13:31:18;;;;;;;4.85;1.35;;;;;;;;;;5065742;28;20219;-79
2022/06/13 13:34:37;;;;;;;2.70;1.35;;;;;;;;;;5074685;28;20184;-80
2022/06/13 13:37:46;;;;;;;2.00;1.33;;;;;;;;;;5074671;28;20196;-79
2022/06/13 13:41:01;;;;;;;3.60;1.23;;;;;;;;;;5092742;28;20219;-80
2022/06/13 13:44:20;;;;;;;3.60;1.20;;;;;;;;;;5082464;28;20172;-79
2022/06/13 13:47:24;;;;;;;3.22;1.17;;;;;;;;;;5056481;28;20214;-79
2022/06/13 13:50:34;;;;;;;4.18;1.20;;;;;;;;;;5072370;28;20186;-80
2022/06/13 13:53:52;;;;;;;6.05;1.55;;;;;;;;;;5081587;28;20183;-80
2022/06/13 13:57:29;;;;;;;3.78;1.25;;;;;;;;;;5082226;28;20194;-79
2022/06/13 14:00:34;;;;;;;3.38;1.20;;;;;;;;;;5104890;28;20656;-80
2022/06/13 14:03:53;;;;;;;3.88;1.30;;;;;;;;;;5077216;28;20210;-80
2022/06/13 14:07:03;;;;;;;6.60;1.40;;;;;;;;;;5079868;28;20185;-80
2022/06/13 14:10:13;;;;;;;4.40;1.05;;;;;;;;;;5101366;28;20637;-80
2022/06/13 14:13:17;;;;;;;2.47;0.85;;;;;;;;;;5086608;28;20193;-81
2022/06/13 14:16:21;;;;;;;3.65;1.23;;;;;;;;;;5078373;28;20171;-81
2022/06/13 14:19:31;;;;;;;3.50;1.30;;;;;;;;;;5088974;28;20531;-80
2022/06/13 14:22:42;;;;;;;2.58;1.10;;;;;;;;;;5092088;28;20535;-80
2022/06/13 14:25:46;;;;;;;1.42;0.90;;;;;;;;;;5080496;28;20178;-81
2022/06/13 14:28:54;;;;;;;3.20;1.10;;;;;;;;;;5079813;28;20210;-80
2022/06/13 14:32:05;;;;;;;3.80;1.02;;;;;;;;;;5098910;28;20225;-80
2022/06/13 14:35:50;;;;;;;1.80;1.08;;;;;;;;;;5104540;28;20191;-80
2022/06/13 14:38:59;;;;;;;6.45;1.30;;;;;;;;;;5094622;28;20175;-81
2022/06/13 14:42:11;;;;;;;3.53;1.30;;;;;;;;;;5103170;28;20214;-81
2022/06/13 14:45:23;;;;;;;4.50;1.33;;;;;;;;;;5091661;28;20180;-81
2022/06/13 14:48:49;;;;;;;3.20;1.13;;;;;;;;;;5082033;28;20211;-81
2022/06/13 14:52:20;;;;;;;2.20;1.00;;;;;;;;;;5102807;28;20203;-80
2022/06/13 14:55:25;;;;;;;2.42;1.13;;;;;;;;;;5094854;28;20178;-80
2022/06/13 14:58:45;;;;;;;5.00;1.27;;;;;;;;;;5093064;28;20174;-79
2022/06/13 15:02:15;;;;;;;5.10;1.40;;;;;;;;;;5105623;28;20444;-80
2022/06/13 15:05:51;;;;;;;3.10;1.42;;;;;;;;;;5095466;28;20202;-80
2022/06/13 15:09:26;;;;;;;3.40;1.20;;;;;;;;;;5091339;28;20186;-79
2022/06/13 15:12:38;;;;;;;3.63;1.13;;;;;;;;;;5090112;28;20220;-79
2022/06/13 15:15:44;;;;;;;3.53;1.30;;;;;;;;;;5067147;28;20182;-79
2022/06/13 15:19:05;;;;;;;1.85;1.00;;;;;;;;;;5067402;28;20180;-80
2022/06/13 15:22:18;;;;;;;2.67;1.20;;;;;;;;;;5095548;28;20218;-79
2022/06/13 15:25:37;;;;;;;2.20;0.95;;;;;;;;;;5075324;28;20196;-80
2022/06/13 15:29:07;;;;;;;4.25;1.40;;;;;;;;;;5100007;28;20211;-79
2022/06/13 15:32:38;;;;;;;2.70;1.10;;;;;;;;;;5098043;28;20221;-80
2022/06/13 15:35:50;;;;;;;2.65;0.90;;;;;;;;;;5098972;28;20186;-79
2022/06/13 15:38:54;;;;;;;1.75;1.02;;;;;;;;;;5098057;28;20192;-79
2022/06/13 15:42:03;;;;;;;4.50;1.05;;;;;;;;;;5075361;28;20221;-79
2022/06/13 15:45:13;;;;;;;2.00;1.10;;;;;;;;;;5086659;28;20624;-80
2022/06/13 15:48:17;;;;;;;2.08;0.95;;;;;;;;;;5098029;28;20213;-79
2022/06/13 15:51:27;;;;;;;3.00;1.00;;;;;;;;;;5086695;28;20221;-79
2022/06/13 15:54:40;;;;;;;2.83;1.08;;;;;;;;;;5086041;28;20531;-79
2022/06/13 15:57:46;;;;;;;6.23;1.40;;;;;;;;;;5098113;28;20177;-79
2022/06/13 16:00:52;;;;;;;6.70;1.50;;;;;;;;;;5074387;28;20211;-80
2022/06/13 16:03:57;;;;;;;5.60;1.20;;;;;;;;;;5074008;28;20200;-79
2022/06/13 16:07:01;;;;;;;2.60;1.33;;;;;;;;;;5085990;28;20198;-80
2022/06/13 16:10:07;;;;;;;1.77;1.20;;;;;;;;;;5097345;28;20226;-80
2022/06/13 16:13:21;;;;;;;4.60;1.20;;;;;;;;;;5074245;28;20182;-79
2022/06/13 16:16:28;;;;;;;3.07;1.30;;;;;;;;;;5086651;28;20186;-79
2022/06/13 16:19:35;;;;;;;3.47;1.40;;;;;;;;;;5086663;28;20506;-80
2022/06/13 16:22:42;;;;;;;5.43;1.40;;;;;;;;;;5085834;28;20211;-80
2022/06/13 16:25:47;;;;;;;2.17;1.33;;;;;;;;;;5097991;28;20179;-79
2022/06/13 16:28:53;;;;;;;2.33;0.93;;;;;;;;;;5097134;28;20555;-79
2022/06/13 16:31:58;;;;;;;3.30;1.00;;;;;;;;;;5085234;28;20220;-79
2022/06/13 16:35:02;;;;;;;5.13;1.30;;;;;;;;;;5085618;28;20178;-79
2022/06/13 16:38:06;;;;;;;3.93;1.40;;;;;;;;;;5086118;28;20195;-79
2022/06/13 16:41:22;;;;;;;2.80;1.37;;;;;;;;;;5085969;28;20690;-79
2022/06/13 16:44:36;;;;;;;3.43;1.30;;;;;;;;;;5098073;28;20196;-79
2022/06/13 16:47:41;;;;;;;2.70;1.30;;;;;;;;;;5086082;28;20195;-79
2022/06/13 16:51:00;;;;;;;3.60;1.30;;;;;;;;;;5085381;28;20167;-79
2022/06/13 16:54:10;;;;;;;3.83;1.40;;;;;;;;;;5085887;28;20179;-79
2022/06/13 16:57:17;;;;;;;2.47;1.37;;;;;;;;;;5088816;28;20184;-79
2022/06/13 17:00:36;;;;;;;3.20;1.40;;;;;;;;;;5076600;28;20183;-79
2022/06/13 17:03:56;;;;;;;3.90;1.40;;;;;;;;;;5074705;28;20665;-79
2022/06/13 17:07:19;;;;;;;2.27;1.37;;;;;;;;;;5099992;28;20187;-79
2022/06/13 17:10:23;;;;;;;2.73;1.67;;;;;;;;;;5084737;28;20211;-79
2022/06/13 17:13:33;;;;;;;3.20;1.50;;;;;;;;;;5100376;28;20174;-80
2022/06/13 17:16:40;;;;;;;3.30;1.33;;;;;;;;;;5082683;28;20195;-78
2022/06/13 17:19:49;;;;;;;5.13;1.80;;;;;;;;;;5078636;28;20191;-80
2022/06/13 17:22:56;;;;;;;3.30;1.37;;;;;;;;;;5070390;28;20190;-80
2022/06/13 17:32:46;;;;;;;4.13;1.60;;;;;;;;;;5079711;28;20556;-80
2022/06/13 17:35:50;;;;;;;4.50;1.50;;;;;;;;;;5080216;28;20179;-80
2022/06/13 17:38:55;;;;;;;5.20;1.40;;;;;;;;;;5079557;28;20180;-80
2022/06/13 17:42:00;;;;;;;4.23;1.60;;;;;;;;;;5079827;28;20211;-80
2022/06/13 17:45:09;;;;;;;2.17;1.17;;;;;;;;;;5058250;28;20192;-79
2022/06/13 17:48:13;;;;;;;3.33;1.50;;;;;;;;;;5056514;28;20192;-80
2022/06/13 17:51:18;;;;;;;3.73;1.30;;;;;;;;;;5066396;28;20219;-79
2022/06/13 17:54:22;;;;;;;1.70;1.20;;;;;;;;;;5064457;28;20176;-80
2022/06/13 17:57:27;;;;;;;2.63;1.57;;;;;;;;;;5081835;28;20195;-79
2022/06/13 18:00:32;;;;;;;2.97;1.13;;;;;;;;;;5086702;28;20183;-80
2022/06/13 18:03:37;;;;;;;2.80;1.30;;;;;;;;;;5097051;28;20206;-79
2022/06/13 18:06:42;;;;;;;5.53;1.60;;;;;;;;;;5095319;28;20179;-79
2022/06/13 18:09:49;;;;;;;6.07;1.50;;;;;;;;;;5067755;28;20207;-79
2022/06/13 18:12:53;;;;;;;5.20;1.80;;;;;;;;;;5097158;28;20179;-78
2022/06/13 18:15:58;;;;;;;8.83;1.53;;;;;;;;;;5085646;28;20187;-79
2022/06/13 18:19:07;;;;;;;3.03;1.50;;;;;;;;;;5084284;28;20183;-79
2022/06/13 18:22:12;;;;;;;3.17;1.63;;;;;;;;;;5083275;28;20218;-79
2022/06/13 18:25:16;;;;;;;6.87;1.60;;;;;;;;;;5075014;28;20187;-79
2022/06/13 18:28:22;;;;;;;4.20;1.47;;;;;;;;;;5076401;28;20199;-80
2022/06/13 18:31:28;;;;;;;4.03;1.53;;;;;;;;;;5075358;28;20207;-79
2022/06/13 18:34:35;;;;;;;4.97;1.50;;;;;;;;;;5096869;28;20246;-79
2022/06/13 18:37:41;;;;;;;6.43;1.43;;;;;;;;;;5087342;28;20195;-79
2022/06/13 18:40:47;;;;;;;7.57;1.60;;;;;;;;;;5088076;28;20639;-80
2022/06/13 18:43:54;;;;;;;4.27;1.67;;;;;;;;;;5068137;28;20206;-79
2022/06/13 18:47:02;;;;;;;5.60;1.60;;;;;;;;;;5081776;28;20188;-79
2022/06/13 18:50:07;;;;;;;5.83;1.70;;;;;;;;;;5069293;28;20211;-79
2022/06/13 18:53:12;;;;;;;4.40;1.60;;;;;;;;;;5059268;28;20183;-79
2022/06/13 18:56:17;;;;;;;3.00;1.60;;;;;;;;;;5096353;28;20191;-79
2022/06/13 18:59:22;;;;;;;5.30;1.70;;;;;;;;;;5089283;28;20178;-80
2022/06/13 19:02:30;;;;;;;3.27;1.70;;;;;;;;;;5100300;28;20214;-78
2022/06/13 19:05:34;;;;;;;4.80;1.60;;;;;;;;;;5093277;28;20195;-79
2022/06/13 19:08:39;;;;;;;7.23;2.00;;;;;;;;;;5081051;28;20187;-79
2022/06/13 19:11:43;;;;;;;3.10;1.50;;;;;;;;;;5067273;28;20219;-79
2022/06/13 19:14:53;;;;;;;5.50;1.63;;;;;;;;;;5078462;28;20180;-78
2022/06/13 19:17:57;;;;;;;7.73;1.50;;;;;;;;;;5081259;28;20507;-78
2022/06/13 19:21:02;;;;;;;4.60;1.77;;;;;;;;;;5092481;28;20214;-77
2022/06/13 19:24:06;;;;;;;3.70;1.70;;;;;;;;;;5086632;28;20183;-78
2022/06/13 19:27:11;;;;;;;5.53;1.90;;;;;;;;;;5065325;28;20199;-78
2022/06/13 19:30:17;;;;;;;4.17;1.57;;;;;;;;;;5087446;28;20207;-78
2022/06/13 19:33:21;;;;;;;5.87;1.70;;;;;;;;;;5098080;28;20187;-77